Terminal Aerodrome Forecast
Issued by NWS

Home | Current Version | Previous Version | Text Only | Print | Product List | Glossary On
Versions: 1 2 3 4 5 6 7 8 9 10
000
FTUS42 KMLB 192300
TAFLEE
TAF
KLEE 192320Z 2000/2024 VRB03KT P6SM BKN250
     FM200900 00000KT 5SM BR BKN250
     FM201400 VRB03KT P6SM FEW040 BKN250=

USA.gov is the U.S. government's official web portal to all federal, state and local government web resources and services.